createdAt,value
2022-08-21T00:00:21.476Z,101409.72
2022-08-21T00:02:26.470Z,101421.03
2022-08-21T00:04:29.402Z,101409.75
2022-08-21T00:06:32.010Z,101415.84
2022-08-21T00:08:33.716Z,101408.00
2022-08-21T00:10:35.754Z,101406.31
2022-08-21T00:12:37.878Z,101407.16
2022-08-21T00:14:39.857Z,101406.28
2022-08-21T00:16:41.863Z,101402.84
2022-08-21T00:18:43.851Z,101410.66
2022-08-21T00:20:46.750Z,101402.81
2022-08-21T00:22:49.988Z,101414.09
2022-08-21T00:24:51.717Z,101408.91
2022-08-21T00:26:54.002Z,101412.38
2022-08-21T00:28:55.756Z,101418.44
2022-08-21T00:31:00.406Z,101415.84
2022-08-21T00:33:03.122Z,101412.38
2022-08-21T00:35:07.984Z,101413.25
2022-08-21T00:37:09.676Z,101410.69
2022-08-21T00:39:11.528Z,101411.53
2022-08-21T00:41:25.964Z,101403.72
2022-08-21T00:43:37.973Z,101403.69
2022-08-21T00:45:40.089Z,101403.69
2022-08-21T00:47:41.973Z,101402.84
2022-08-21T00:49:44.305Z,101414.13
2022-08-21T00:52:04.192Z,101408.09
2022-08-21T00:54:08.926Z,101411.56
2022-08-21T00:56:22.024Z,101402.03
2022-08-21T00:58:24.657Z,101401.13
2022-08-21T01:00:31.204Z,101391.56
2022-08-21T01:02:33.056Z,101394.19
2022-08-21T01:04:35.924Z,101397.66
2022-08-21T01:06:37.605Z,101395.09
2022-08-21T01:08:39.970Z,101383.78
2022-08-21T01:10:54.675Z,101387.25
2022-08-21T01:12:58.509Z,101388.13
2022-08-21T01:15:02.380Z,101389.88
2022-08-21T01:17:05.148Z,101382.91
2022-08-21T01:19:09.588Z,101393.31
2022-08-21T01:21:18.919Z,101394.19
2022-08-21T01:23:21.193Z,101390.72
2022-08-21T01:25:22.975Z,101399.38
2022-08-21T01:27:24.993Z,101398.50
2022-08-21T01:29:55.915Z,101407.19
2022-08-21T01:31:58.874Z,101401.09
2022-08-21T01:34:01.139Z,101409.78
2022-08-21T01:36:03.385Z,101401.97
2022-08-21T01:38:05.559Z,101408.06
2022-08-21T01:40:08.919Z,101406.28
2022-08-21T01:42:18.283Z,101407.19
2022-08-21T01:44:23.087Z,101405.44
2022-08-21T01:46:25.197Z,101408.94
2022-08-21T01:48:27.339Z,101410.66
2022-08-21T01:50:30.809Z,101410.66
2022-08-21T01:52:32.758Z,101412.41
2022-08-21T01:54:35.634Z,101408.94
2022-08-21T01:56:41.015Z,101418.47
2022-08-21T01:58:44.976Z,101421.06
2022-08-21T02:00:47.109Z,101413.28
2022-08-21T02:02:49.201Z,101416.72
2022-08-21T02:04:51.212Z,101411.53
2022-08-21T02:06:55.318Z,101407.19
2022-08-21T02:08:57.169Z,101411.53
2022-08-21T02:10:59.173Z,101409.81
2022-08-21T02:13:01.663Z,101406.31
2022-08-21T02:15:05.550Z,101408.94
2022-08-21T02:17:09.669Z,101409.78
2022-08-21T02:19:13.868Z,101408.06
2022-08-21T02:21:15.799Z,101402.00
2022-08-21T02:23:17.661Z,101402.88
2022-08-21T02:25:23.658Z,101394.16
2022-08-21T02:27:27.417Z,101388.09
2022-08-21T02:29:29.446Z,101394.16
2022-08-21T02:31:32.367Z,101388.09
2022-08-21T02:33:34.728Z,101399.38
2022-08-21T02:35:38.426Z,101390.69
2022-08-21T02:37:46.264Z,101389.81
2022-08-21T02:39:48.202Z,101390.66
2022-08-21T02:41:50.138Z,101382.00
2022-08-21T02:43:52.153Z,101389.81
2022-08-21T02:45:56.356Z,101399.38
2022-08-21T02:48:01.279Z,101387.19
2022-08-21T02:50:08.690Z,101387.19
2022-08-21T02:52:10.600Z,101388.06
2022-08-21T02:54:12.357Z,101385.50
2022-08-21T02:56:17.984Z,101391.56
2022-08-21T02:58:31.600Z,101384.59
2022-08-21T03:00:35.074Z,101387.19
2022-08-21T03:02:37.033Z,101388.06
2022-08-21T03:04:41.370Z,101383.72
2022-08-21T03:06:45.177Z,101392.41
2022-08-21T03:08:47.404Z,101387.19
2022-08-21T03:10:53.472Z,101384.63
2022-08-21T03:12:55.802Z,101382.00
2022-08-21T03:14:58.855Z,101381.97
2022-08-21T03:17:00.873Z,101378.53
2022-08-21T03:19:03.578Z,101369.81
2022-08-21T03:21:06.571Z,101371.56
2022-08-21T03:23:12.740Z,101370.66
2022-08-21T03:25:16.256Z,101376.75
2022-08-21T03:27:18.277Z,101370.69
2022-08-21T03:29:22.024Z,101369.81
2022-08-21T03:31:24.270Z,101376.75
2022-08-21T03:33:26.127Z,101375.88
2022-08-21T03:35:31.112Z,101369.81
2022-08-21T03:37:33.467Z,101372.41
2022-08-21T03:39:35.504Z,101376.75
2022-08-21T03:41:37.329Z,101369.78
2022-08-21T03:43:39.714Z,101373.25
2022-08-21T03:45:41.806Z,101372.31
2022-08-21T03:47:56.929Z,101378.41
2022-08-21T03:49:58.836Z,101376.66
2022-08-21T03:52:01.601Z,101368.84
2022-08-21T03:54:04.333Z,101379.25
2022-08-21T03:56:07.077Z,101375.78
2022-08-21T03:58:16.331Z,101383.66
2022-08-21T04:00:20.643Z,101387.13
2022-08-21T04:04:38.896Z,101388.91
2022-08-21T04:06:42.194Z,101385.41
2022-08-21T04:08:44.165Z,101387.13
2022-08-21T04:10:49.881Z,101387.13
2022-08-21T04:12:52.349Z,101380.22
2022-08-21T04:14:54.224Z,101383.69
2022-08-21T04:16:56.070Z,101383.69
2022-08-21T04:18:58.138Z,101387.16
2022-08-21T04:21:01.377Z,101380.22
2022-08-21T04:23:04.859Z,101386.28
2022-08-21T04:25:08.393Z,101390.66
2022-08-21T04:27:10.415Z,101387.16
2022-08-21T04:29:12.550Z,101386.28
2022-08-21T04:31:14.522Z,101384.53
2022-08-21T04:33:16.371Z,101388.00
2022-08-21T04:35:22.590Z,101394.06
2022-08-21T04:37:25.075Z,101390.59
2022-08-21T04:39:29.481Z,101392.34
2022-08-21T04:41:32.399Z,101398.41
2022-08-21T04:43:34.742Z,101390.53
2022-08-21T04:45:39.712Z,101400.13
2022-08-21T04:47:52.256Z,101403.63
2022-08-21T04:49:55.199Z,101407.94
2022-08-21T04:51:57.187Z,101405.28
2022-08-21T04:54:10.270Z,101413.09
2022-08-21T04:56:40.821Z,101414.84
2022-08-21T04:58:43.951Z,101412.25
2022-08-21T05:00:47.237Z,101407.84
2022-08-21T05:02:51.059Z,101410.47
2022-08-21T05:04:55.502Z,101403.50
2022-08-21T05:07:03.166Z,101401.78
2022-08-21T05:09:06.092Z,101412.19
2022-08-21T05:11:08.228Z,101413.91
2022-08-21T05:13:11.075Z,101405.25
2022-08-21T05:15:13.959Z,101401.78
2022-08-21T05:17:15.891Z,101396.56
2022-08-21T05:19:17.734Z,101398.31
2022-08-21T05:21:19.480Z,101398.31
2022-08-21T05:23:21.687Z,101395.69
2022-08-21T05:25:24.054Z,101395.69
2022-08-21T05:27:25.854Z,101403.50
2022-08-21T05:29:32.392Z,101396.59
2022-08-21T05:31:34.462Z,101400.91
2022-08-21T05:33:36.203Z,101413.91
2022-08-21T05:35:42.158Z,101413.03
2022-08-21T05:37:43.929Z,101407.84
2022-08-21T05:40:05.546Z,101426.91
2022-08-21T05:42:07.759Z,101427.78
2022-08-21T05:44:10.095Z,101428.66
2022-08-21T05:46:12.507Z,101432.16
2022-08-21T05:48:24.815Z,101430.44
2022-08-21T05:50:30.540Z,101430.44
2022-08-21T05:52:35.178Z,101433.03
2022-08-21T05:54:38.549Z,101435.63
2022-08-21T05:56:40.261Z,101442.53
2022-08-21T05:58:42.379Z,101443.44
2022-08-21T06:00:45.102Z,101442.56
2022-08-21T06:02:46.838Z,101447.78
2022-08-21T06:04:49.435Z,101438.22
2022-08-21T06:06:51.147Z,101450.38
2022-08-21T06:08:54.022Z,101438.22
2022-08-21T06:10:57.901Z,101434.78
2022-08-21T06:12:59.805Z,101443.47
2022-08-21T06:15:01.672Z,101435.72
2022-08-21T06:17:09.876Z,101439.19
2022-08-21T06:19:11.667Z,101440.03
2022-08-21T06:21:14.644Z,101443.56
2022-08-21T06:23:16.398Z,101439.22
2022-08-21T06:25:19.503Z,101447.88
2022-08-21T06:27:24.716Z,101441.81
2022-08-21T06:29:28.271Z,101444.41
2022-08-21T06:31:30.259Z,101440.97
2022-08-21T06:33:32.801Z,101441.84
2022-08-21T06:35:35.878Z,101433.16
2022-08-21T06:37:37.936Z,101442.72
2022-08-21T06:39:45.068Z,101441.00
2022-08-21T06:41:47.104Z,101447.06
2022-08-21T06:43:49.501Z,101439.25
2022-08-21T06:45:51.409Z,101433.16
2022-08-21T06:47:53.081Z,101425.34
2022-08-21T06:49:55.245Z,101431.44
2022-08-21T06:51:57.320Z,101430.59
2022-08-21T06:53:59.371Z,101430.63
2022-08-21T06:56:01.475Z,101427.16
2022-08-21T06:58:05.758Z,101423.66
2022-08-21T07:00:09.755Z,101421.97
2022-08-21T07:02:11.573Z,101419.31
2022-08-21T07:04:13.270Z,101417.59
2022-08-21T07:06:15.830Z,101415.03
2022-08-21T07:08:26.474Z,101414.13
2022-08-21T07:10:28.851Z,101410.69
2022-08-21T07:12:31.392Z,101409.81
2022-08-21T07:14:33.081Z,101408.94
2022-08-21T07:16:34.786Z,101411.56
2022-08-21T07:18:36.550Z,101410.66
2022-08-21T07:20:38.566Z,101401.13
2022-08-21T07:22:42.215Z,101412.44
2022-08-21T07:24:43.884Z,101408.06
2022-08-21T07:26:45.559Z,101406.38
2022-08-21T07:28:48.630Z,101408.06
2022-08-21T07:30:55.834Z,101404.63
2022-08-21T07:32:58.113Z,101406.34
2022-08-21T07:35:00.404Z,101404.63
2022-08-21T07:37:09.881Z,101403.75
2022-08-21T07:39:11.707Z,101403.75
2022-08-21T07:41:19.390Z,101401.13
2022-08-21T07:43:22.642Z,101404.63
2022-08-21T07:45:27.510Z,101397.69
2022-08-21T07:47:41.813Z,101396.78
2022-08-21T07:49:44.349Z,101397.63
2022-08-21T07:51:46.078Z,101396.78
2022-08-21T07:53:52.933Z,101398.50
2022-08-21T07:55:58.510Z,101409.81
2022-08-21T07:58:00.455Z,101403.72
2022-08-21T08:00:02.660Z,101408.91
2022-08-21T08:02:04.437Z,101408.94
2022-08-21T08:04:06.151Z,101408.97
2022-08-21T08:06:13.135Z,101401.13
2022-08-21T08:08:14.968Z,101406.34
2022-08-21T08:10:17.822Z,101401.94
2022-08-21T08:12:19.525Z,101399.34
2022-08-21T08:14:26.516Z,101401.94
2022-08-21T08:16:33.293Z,101391.50
2022-08-21T08:18:35.334Z,101390.69
2022-08-21T08:20:37.094Z,101390.69
2022-08-21T08:22:40.139Z,101393.28
2022-08-21T08:24:41.971Z,101395.00
2022-08-21T08:26:43.849Z,101394.13
2022-08-21T08:28:47.668Z,101395.00
2022-08-21T08:30:50.588Z,101385.47
2022-08-21T08:32:52.620Z,101393.28
2022-08-21T08:34:54.332Z,101387.19
2022-08-21T08:36:58.855Z,101378.47
2022-08-21T08:39:01.917Z,101374.94
2022-08-21T08:41:13.945Z,101381.03
2022-08-21T08:43:15.872Z,101381.91
2022-08-21T08:45:23.137Z,101370.56
2022-08-21T08:47:26.684Z,101366.25
2022-08-21T08:49:37.818Z,101373.19
2022-08-21T08:51:56.152Z,101377.53
2022-08-21T08:54:07.129Z,101379.25
2022-08-21T08:56:09.121Z,101385.38
2022-08-21T08:58:31.244Z,101392.31
2022-08-21T09:00:33.694Z,101384.47
2022-08-21T09:02:35.478Z,101393.16
2022-08-21T09:04:37.303Z,101400.97
2022-08-21T09:06:53.014Z,101397.44
2022-08-21T09:09:12.472Z,101401.75
2022-08-21T09:11:25.255Z,101399.16
2022-08-21T09:13:55.457Z,101404.28
2022-08-21T09:16:01.032Z,101406.03
2022-08-21T09:18:42.031Z,101396.41
2022-08-21T09:21:04.995Z,101400.78
2022-08-21T09:23:06.705Z,101397.22
2022-08-21T09:25:17.157Z,101395.41
2022-08-21T09:27:20.301Z,101403.19
2022-08-21T09:29:27.067Z,101401.41
2022-08-21T09:31:33.606Z,101411.81
2022-08-21T09:33:36.016Z,101411.84
2022-08-21T09:35:38.386Z,101422.22
2022-08-21T09:37:54.818Z,101422.22
2022-08-21T09:39:58.558Z,101421.34
2022-08-21T09:42:05.101Z,101423.84
2022-08-21T09:44:09.200Z,101416.84
2022-08-21T09:46:21.050Z,101420.28
2022-08-21T09:48:32.768Z,101420.19
2022-08-21T09:50:35.159Z,101423.00
2022-08-21T09:52:45.466Z,101407.22
2022-08-21T09:54:47.659Z,101412.41
2022-08-21T09:57:15.575Z,101418.44
2022-08-21T09:59:25.975Z,101413.09
2022-08-21T10:01:27.828Z,101413.91
2022-08-21T10:03:29.805Z,101406.91
2022-08-21T10:05:31.694Z,101413.75
2022-08-21T10:07:36.991Z,101412.00
2022-08-21T10:09:38.812Z,101404.88
2022-08-21T10:11:44.409Z,101404.78
2022-08-21T10:14:03.290Z,101407.41
2022-08-21T10:16:32.478Z,101402.88
2022-08-21T10:18:43.327Z,101396.72
2022-08-21T10:21:11.893Z,101401.09
2022-08-21T10:23:38.670Z,101400.09
2022-08-21T10:26:13.823Z,101398.25
2022-08-21T10:28:38.655Z,101393.16
2022-08-21T10:30:48.027Z,101389.56
2022-08-21T10:33:28.161Z,101395.59
2022-08-21T10:35:35.151Z,101390.13
2022-08-21T10:38:06.056Z,101391.69
2022-08-21T10:40:11.114Z,101392.47
2022-08-21T10:42:48.633Z,101386.25
2022-08-21T10:45:09.666Z,101389.81
2022-08-21T10:47:24.923Z,101386.25
2022-08-21T10:49:52.429Z,101389.03
2022-08-21T10:52:12.059Z,101384.66
2022-08-21T10:54:44.145Z,101385.75
2022-08-21T10:56:50.397Z,101380.53
2022-08-21T10:59:13.723Z,101387.44
2022-08-21T11:01:29.579Z,101376.13
2022-08-21T11:03:42.926Z,101378.81
2022-08-21T11:05:52.853Z,101378.09
2022-08-21T11:08:38.652Z,101406.00
2022-08-21T11:10:51.326Z,101387.63
2022-08-21T11:13:31.222Z,101388.50
2022-08-21T11:16:10.229Z,101392.97
2022-08-21T11:18:35.851Z,101384.16
2022-08-21T11:20:44.545Z,101384.06
2022-08-21T11:23:03.026Z,101389.38
2022-08-21T11:25:22.178Z,101391.97
2022-08-21T11:27:34.186Z,101400.88
2022-08-21T11:29:41.832Z,101399.13
2022-08-21T11:32:14.340Z,101398.28
2022-08-21T11:34:45.699Z,101397.28
2022-08-21T11:37:09.154Z,101396.41
2022-08-21T11:39:35.806Z,101399.09
2022-08-21T11:41:47.270Z,101400.75
2022-08-21T11:44:11.594Z,101409.56
2022-08-21T11:46:41.847Z,101405.00
2022-08-21T11:49:25.491Z,101409.31
2022-08-21T11:51:40.088Z,101408.59
2022-08-21T11:53:59.987Z,101405.19
2022-08-21T11:56:10.597Z,101404.22
2022-08-21T11:58:35.915Z,101400.66
2022-08-21T12:00:45.366Z,101408.44
2022-08-21T12:02:51.421Z,101422.44
2022-08-21T12:05:08.872Z,101409.34
2022-08-21T12:07:18.234Z,101401.38
2022-08-21T12:09:25.872Z,101410.03
2022-08-21T12:11:30.642Z,101403.94
2022-08-21T12:13:40.287Z,101401.97
2022-08-21T12:15:43.918Z,101399.25
2022-08-21T12:18:29.429Z,101405.97
2022-08-21T12:22:41.933Z,101395.84
2022-08-21T12:24:49.584Z,101395.72
2022-08-21T12:27:00.566Z,101392.13
2022-08-21T12:29:15.058Z,101390.94
2022-08-21T12:31:26.712Z,101386.50
2022-08-21T12:33:28.374Z,101388.00
2022-08-21T12:35:37.085Z,101379.94
2022-08-21T12:37:51.055Z,101378.00
2022-08-21T12:39:55.603Z,101375.41
2022-08-21T12:42:20.299Z,101381.28
2022-08-21T12:44:29.073Z,101376.66
2022-08-21T12:46:38.167Z,101367.44
2022-08-21T12:48:49.653Z,101370.03
2022-08-21T12:50:55.033Z,101366.63
2022-08-21T12:53:22.856Z,101349.91
2022-08-21T12:55:33.846Z,101349.34
2022-08-21T12:57:37.673Z,101357.88
2022-08-21T12:59:40.774Z,101364.00
2022-08-21T13:01:50.757Z,101351.63
2022-08-21T13:04:04.441Z,101359.22
2022-08-21T13:06:10.725Z,101361.75
2022-08-21T13:08:14.786Z,101355.38
2022-08-21T13:10:23.604Z,101362.94
2022-08-21T13:12:29.474Z,101359.53
2022-08-21T13:14:45.988Z,101361.88
2022-08-21T13:16:53.557Z,101358.53
2022-08-21T13:19:06.552Z,101355.91
2022-08-21T13:21:18.414Z,101350.44
2022-08-21T13:23:30.166Z,101352.41
2022-08-21T13:25:37.872Z,101344.53
2022-08-21T13:27:40.403Z,101337.59
2022-08-21T13:29:44.130Z,101341.16
2022-08-21T13:31:57.149Z,101339.09
2022-08-21T13:34:01.306Z,101337.03
2022-08-21T13:36:10.313Z,101344.75
2022-08-21T13:38:12.271Z,101336.06
2022-08-21T13:40:19.734Z,101333.16
2022-08-21T13:42:21.817Z,101332.75
2022-08-21T13:44:32.982Z,101340.66
2022-08-21T13:46:37.060Z,101338.03
2022-08-21T13:48:40.542Z,101332.75
2022-08-21T13:50:43.925Z,101330.31
2022-08-21T13:52:52.438Z,101331.59
2022-08-21T13:55:08.688Z,101324.06
2022-08-21T13:57:29.615Z,101317.44
2022-08-21T13:59:36.620Z,101321.06
2022-08-21T14:01:55.715Z,101319.34
2022-08-21T14:04:05.832Z,101312.00
2022-08-21T14:06:18.165Z,101316.31
2022-08-21T14:08:34.239Z,101315.53
2022-08-21T14:10:55.936Z,101309.38
2022-08-21T14:13:05.145Z,101318.50
2022-08-21T14:15:08.146Z,101309.38
2022-08-21T14:17:33.717Z,101301.38
2022-08-21T14:19:48.077Z,101301.09
2022-08-21T14:21:50.114Z,101300.56
2022-08-21T14:24:09.380Z,101299.03
2022-08-21T14:26:11.431Z,101299.72
2022-08-21T14:28:34.622Z,101290.31
2022-08-21T14:30:40.129Z,101297.94
2022-08-21T14:32:44.682Z,101296.94
2022-08-21T14:34:47.682Z,101295.03
2022-08-21T14:36:51.203Z,101292.88
2022-08-21T14:38:53.198Z,101291.28
2022-08-21T14:41:00.588Z,101298.09
2022-08-21T14:43:03.270Z,101292.88
2022-08-21T14:45:31.826Z,101295.88
2022-08-21T14:47:33.516Z,101292.13
2022-08-21T14:49:35.317Z,101293.31
2022-08-21T14:51:37.058Z,101286.53
2022-08-21T14:53:55.656Z,101286.38
2022-08-21T14:56:06.377Z,101294.94
2022-08-21T14:58:08.078Z,101285.91
2022-08-21T15:00:11.637Z,101283.94
2022-08-21T15:02:13.498Z,101282.28
2022-08-21T15:04:15.307Z,101277.25
2022-08-21T15:06:19.487Z,101275.63
2022-08-21T15:08:29.540Z,101274.56
2022-08-21T15:10:35.003Z,101287.84
2022-08-21T15:12:37.086Z,101277.47
2022-08-21T15:14:41.346Z,101271.94
2022-08-21T15:16:43.313Z,101264.97
2022-08-21T15:18:44.999Z,101267.56
2022-08-21T15:20:47.333Z,101268.66
2022-08-21T15:22:49.011Z,101268.88
2022-08-21T15:24:52.119Z,101264.66
2022-08-21T15:26:55.302Z,101268.44
2022-08-21T15:28:57.044Z,101271.09
2022-08-21T15:31:01.498Z,101257.91
2022-08-21T15:33:03.245Z,101253.53
2022-08-21T15:35:05.218Z,101265.09
2022-08-21T15:37:08.996Z,101263.59
2022-08-21T15:39:10.705Z,101256.81
2022-08-21T15:41:14.474Z,101260.25
2022-08-21T15:43:30.949Z,101270.06
2022-08-21T15:45:34.062Z,101266.09
2022-08-21T15:47:38.123Z,101263.16
2022-08-21T15:49:40.017Z,101263.88
2022-08-21T15:51:43.721Z,101257.66
2022-08-21T15:53:47.518Z,101260.13
2022-08-21T15:55:49.402Z,101255.81
2022-08-21T15:57:58.211Z,101256.13
2022-08-21T16:00:19.119Z,101255.09
2022-08-21T16:02:26.624Z,101253.84
2022-08-21T16:04:28.995Z,101247.88
2022-08-21T16:06:37.934Z,101253.72
2022-08-21T16:08:53.013Z,101243.91
2022-08-21T16:10:55.834Z,101249.34
2022-08-21T16:13:02.690Z,101247.97
2022-08-21T16:15:08.108Z,101247.34
2022-08-21T16:17:12.446Z,101235.66
2022-08-21T16:19:15.174Z,101244.78
2022-08-21T16:21:17.595Z,101243.44
2022-08-21T16:23:19.703Z,101243.97
2022-08-21T16:25:21.953Z,101243.59
2022-08-21T16:27:27.296Z,101241.22
2022-08-21T16:29:33.805Z,101242.47
2022-08-21T16:31:36.086Z,101240.97
2022-08-21T16:33:41.404Z,101235.59
2022-08-21T16:35:46.920Z,101239.25
2022-08-21T16:37:52.923Z,101239.66
2022-08-21T16:39:55.060Z,101238.19
2022-08-21T16:41:56.958Z,101233.00
2022-08-21T16:43:58.996Z,101236.19
2022-08-21T16:46:01.547Z,101235.38
2022-08-21T16:48:06.623Z,101228.78
2022-08-21T16:50:08.778Z,101231.81
2022-08-21T16:52:10.460Z,101238.59
2022-08-21T16:54:14.000Z,101231.31
2022-08-21T16:56:16.961Z,101237.06
2022-08-21T16:58:34.647Z,101234.72
2022-08-21T17:00:36.548Z,101239.50
2022-08-21T17:02:42.643Z,101232.63
2022-08-21T17:04:44.444Z,101232.00
2022-08-21T17:06:46.549Z,101228.84
2022-08-21T17:08:52.655Z,101228.06
2022-08-21T17:10:55.132Z,101233.56
2022-08-21T17:12:58.714Z,101229.25
2022-08-21T17:15:06.224Z,101225.09
2022-08-21T17:17:10.601Z,101223.41
2022-08-21T17:19:13.464Z,101229.66
2022-08-21T17:21:18.685Z,101226.16
2022-08-21T17:23:21.495Z,101225.31
2022-08-21T17:25:23.657Z,101231.66
2022-08-21T17:27:28.275Z,101229.53
2022-08-21T17:29:35.740Z,101227.69
2022-08-21T17:31:40.156Z,101225.25
2022-08-21T17:33:51.091Z,101224.69
2022-08-21T17:35:53.327Z,101224.78
2022-08-21T17:37:55.064Z,101233.81
2022-08-21T17:39:58.959Z,101232.34
2022-08-21T17:42:05.429Z,101232.84
2022-08-21T17:44:10.693Z,101235.41
2022-08-21T17:46:21.659Z,101232.41
2022-08-21T17:48:26.921Z,101232.56
2022-08-21T17:50:28.861Z,101232.56
2022-08-21T17:52:30.611Z,101227.59
2022-08-21T17:54:32.293Z,101237.31
2022-08-21T17:56:37.441Z,101232.06
2022-08-21T17:58:39.318Z,101240.03
2022-08-21T18:00:41.666Z,101239.06
2022-08-21T18:02:45.997Z,101237.41
2022-08-21T18:04:51.415Z,101239.97
2022-08-21T18:06:53.129Z,101241.28
2022-08-21T18:08:54.834Z,101239.34
2022-08-21T18:10:58.267Z,101243.09
2022-08-21T18:13:06.942Z,101247.13
2022-08-21T18:15:11.292Z,101246.44
2022-08-21T18:17:19.136Z,101249.34
2022-08-21T18:19:25.264Z,101247.66
2022-08-21T18:21:27.811Z,101252.56
2022-08-21T18:23:43.933Z,101248.44
2022-08-21T18:25:50.961Z,101249.47
2022-08-21T18:27:53.045Z,101248.50
2022-08-21T18:29:57.110Z,101248.81
2022-08-21T18:31:58.905Z,101254.50
2022-08-21T18:34:06.169Z,101252.53
2022-08-21T18:36:09.941Z,101253.63
2022-08-21T18:38:13.116Z,101258.94
2022-08-21T18:40:15.954Z,101254.66
2022-08-21T18:42:18.491Z,101259.31
2022-08-21T18:44:23.410Z,101257.63
2022-08-21T18:46:25.135Z,101262.13
2022-08-21T18:48:29.317Z,101264.31
2022-08-21T18:50:31.288Z,101269.72
2022-08-21T18:52:33.002Z,101278.53
2022-08-21T18:54:37.305Z,101273.59
2022-08-21T18:56:42.254Z,101288.53
2022-08-21T18:58:45.917Z,101286.34
2022-08-21T19:00:50.802Z,101285.31
2022-08-21T19:02:53.346Z,101290.78
2022-08-21T19:04:55.566Z,101289.28
2022-08-21T19:06:57.584Z,101300.63
2022-08-21T19:09:02.289Z,101297.25
2022-08-21T19:11:04.942Z,101297.09
2022-08-21T19:13:07.375Z,101300.84
2022-08-21T19:15:12.961Z,101294.75
2022-08-21T19:17:15.081Z,101297.50
2022-08-21T19:19:18.370Z,101302.59
2022-08-21T19:21:20.893Z,101300.19
2022-08-21T19:23:28.986Z,101308.03
2022-08-21T19:25:34.486Z,101306.38
2022-08-21T19:27:37.577Z,101299.34
2022-08-21T19:29:40.261Z,101302.19
2022-08-21T19:31:44.047Z,101304.94
2022-08-21T19:33:52.109Z,101305.78
2022-08-21T19:35:55.559Z,101314.69
2022-08-21T19:37:57.606Z,101300.03
2022-08-21T19:39:59.861Z,101305.13
2022-08-21T19:42:01.939Z,101312.06
2022-08-21T19:44:07.551Z,101309.44
2022-08-21T19:46:12.658Z,101310.28
2022-08-21T19:48:15.112Z,101317.41
2022-08-21T19:50:21.669Z,101321.91
2022-08-21T19:52:23.857Z,101321.03
2022-08-21T19:54:30.256Z,101327.28
2022-08-21T19:56:34.362Z,101329.91
2022-08-21T19:58:39.861Z,101334.31
2022-08-21T20:00:44.008Z,101332.53
2022-08-21T20:02:48.230Z,101343.03
2022-08-21T20:04:53.828Z,101334.44
2022-08-21T20:06:57.043Z,101335.34
2022-08-21T20:08:59.353Z,101342.34
2022-08-21T20:11:03.162Z,101342.34
2022-08-21T20:13:06.555Z,101342.44
2022-08-21T20:15:09.396Z,101343.38
2022-08-21T20:17:12.901Z,101350.38
2022-08-21T20:19:16.156Z,101344.25
2022-08-21T20:21:20.645Z,101346.16
2022-08-21T20:23:30.398Z,101348.78
2022-08-21T20:25:36.108Z,101350.69
2022-08-21T20:27:40.537Z,101358.44
2022-08-21T20:29:42.788Z,101359.34
2022-08-21T20:31:45.090Z,101354.06
2022-08-21T20:36:10.474Z,101356.78
2022-08-21T20:38:13.386Z,101365.66
2022-08-21T20:40:16.655Z,101363.94
2022-08-21T20:42:25.365Z,101367.44
2022-08-21T20:44:31.610Z,101361.44
2022-08-21T20:46:35.340Z,101365.75
2022-08-21T20:48:49.881Z,101357.97
2022-08-21T20:50:59.169Z,101356.22
2022-08-21T20:53:12.302Z,101354.44
2022-08-21T20:55:17.651Z,101349.31
2022-08-21T20:57:27.139Z,101355.50
2022-08-21T20:59:35.254Z,101356.44
2022-08-21T21:01:37.795Z,101349.69
2022-08-21T21:03:55.072Z,101352.19
2022-08-21T21:06:04.276Z,101355.72
2022-08-21T21:08:31.177Z,101360.94
2022-08-21T21:10:36.967Z,101360.94
2022-08-21T21:12:48.834Z,101360.09
2022-08-21T21:14:59.540Z,101363.63
2022-08-21T21:17:06.060Z,101366.25
2022-08-21T21:19:37.002Z,101365.44
2022-08-21T21:21:51.372Z,101365.44
2022-08-21T21:24:04.500Z,101370.75
2022-08-21T21:26:18.439Z,101365.59
2022-08-21T21:28:43.138Z,101354.44
2022-08-21T21:33:09.616Z,101344.81
2022-08-21T21:35:14.900Z,101352.91
2022-08-21T21:37:25.642Z,101342.38
2022-08-21T21:39:36.139Z,101336.28
2022-08-21T21:41:56.971Z,101333.59
2022-08-21T21:44:08.048Z,101344.19
2022-08-21T21:46:33.694Z,101338.94
2022-08-21T21:48:57.919Z,101338.88
2022-08-21T21:51:12.032Z,101337.22
2022-08-21T21:53:45.819Z,101338.84
2022-08-21T21:56:30.002Z,101322.31
2022-08-21T21:58:47.839Z,101326.59
2022-08-21T22:00:59.094Z,101326.69
2022-08-21T22:03:23.823Z,101329.22
2022-08-21T22:05:41.234Z,101331.91
2022-08-21T22:08:07.991Z,101335.44
2022-08-21T22:10:30.176Z,101337.22
2022-08-21T22:13:10.174Z,101338.22
2022-08-21T22:15:13.249Z,101331.19
2022-08-21T22:17:43.670Z,101331.22
2022-08-21T22:19:47.043Z,101331.22
2022-08-21T22:22:01.668Z,101322.38
2022-08-21T22:24:15.531Z,101319.78
2022-08-21T22:26:21.589Z,101317.16
2022-08-21T22:28:33.003Z,101319.88
2022-08-21T22:30:52.452Z,101312.88
2022-08-21T22:33:00.221Z,101311.09
2022-08-21T22:35:12.515Z,101310.38
2022-08-21T22:37:14.680Z,101312.97
2022-08-21T22:39:37.807Z,101315.63
2022-08-21T22:41:44.210Z,101318.25
2022-08-21T22:44:03.755Z,101306.94
2022-08-21T22:46:09.338Z,101306.91
2022-08-21T22:48:22.423Z,101305.28
2022-08-21T22:50:24.993Z,101312.19
2022-08-21T22:52:36.350Z,101313.97
2022-08-21T22:54:42.479Z,101308.88
2022-08-21T22:56:55.356Z,101313.16
2022-08-21T22:59:02.097Z,101307.06
2022-08-21T23:01:17.152Z,101315.72
2022-08-21T23:03:43.853Z,101314.88
2022-08-21T23:05:46.490Z,101318.38
2022-08-21T23:07:51.256Z,101312.34
2022-08-21T23:09:56.138Z,101306.25
2022-08-21T23:12:14.082Z,101301.97
2022-08-21T23:14:25.243Z,101308.97
2022-08-21T23:16:36.703Z,101302.88
2022-08-21T23:19:23.758Z,101312.56
2022-08-21T23:21:50.073Z,101314.25
2022-08-21T23:24:19.114Z,101314.28
2022-08-21T23:26:46.939Z,101325.59
2022-08-21T23:29:24.662Z,101321.28
2022-08-21T23:31:45.646Z,101326.56
2022-08-21T23:34:06.309Z,101337.81
2022-08-21T23:36:32.447Z,101336.09
2022-08-21T23:39:10.511Z,101339.53
2022-08-21T23:41:38.739Z,101334.38
2022-08-21T23:43:55.708Z,101327.41
2022-08-21T23:46:32.386Z,101337.91
2022-08-21T23:48:54.490Z,101337.91
2022-08-21T23:51:02.898Z,101332.69
2022-08-21T23:53:25.452Z,101337.91
2022-08-21T23:55:44.462Z,101338.84
2022-08-21T23:58:13.501Z,101327.50
